Time;durP1;ratioP1;P1;durP2;ratioP2;P2;SDS_P1;SDS_P2;PMS_P1;PMS_P2;Temp;Humidity;BMP_temperature;BMP_pressure;BME280_temperature;BME280_humidity;BME280_pressure;Samples;Min_cycle;Max_cycle;Signal;HPM_P1;HPM_P2
2024/04/24 00:04:32;;;;;;;7.22;1.80;;;5.70;99.90;;;;;;21721880;27;20021;-79
2024/04/24 00:14:33;;;;;;;8.82;2.78;;;5.70;99.90;;;;;;21721775;27;20538;-78
2024/04/24 00:24:34;;;;;;;8.98;1.75;;;5.70;99.90;;;;;;21711953;27;20085;-79
2024/04/24 00:34:35;;;;;;;8.63;1.48;;;5.70;99.90;;;;;;21714929;26;20032;-81
2024/04/24 00:44:36;;;;;;;7.43;1.60;;;5.70;99.90;;;;;;21755564;27;20030;-80
2024/04/24 00:54:37;;;;;;;6.05;1.60;;;5.60;99.90;;;;;;21734013;27;20006;-80
2024/04/24 01:04:38;;;;;;;4.00;1.30;;;5.60;98.60;;;;;;21754591;27;20051;-79
2024/04/24 01:14:39;;;;;;;7.13;1.00;;;5.60;82.20;;;;;;21731710;27;20006;-81
2024/04/24 01:24:46;;;;;;;4.45;1.20;;;5.50;71.10;;;;;;21748833;27;20024;-79
2024/04/24 01:34:47;;;;;;;5.78;1.17;;;5.40;88.90;;;;;;21759312;27;20024;-78
2024/04/24 01:44:48;;;;;;;5.00;1.08;;;5.30;76.10;;;;;;21886386;26;20034;-82
2024/04/24 01:54:49;;;;;;;4.60;0.98;;;5.00;91.10;;;;;;21879966;27;20003;-80
2024/04/24 02:04:50;;;;;;;4.22;1.08;;;4.80;99.90;;;;;;21849269;26;20113;-81
2024/04/24 02:14:51;;;;;;;8.48;1.15;;;4.70;99.90;;;;;;21912083;27;19998;-81
2024/04/24 02:35:11;;;;;;;5.72;1.20;;;4.60;99.90;;;;;;21947774;26;20034;-80
2024/04/24 02:45:12;;;;;;;8.50;1.08;;;4.60;99.90;;;;;;21833374;27;20019;-81
2024/04/24 02:55:13;;;;;;;7.78;1.25;;;4.60;99.90;;;;;;21729624;27;20010;-81
2024/04/24 03:05:14;;;;;;;3.47;0.98;;;4.70;99.90;;;;;;21729206;27;20114;-82
2024/04/24 03:15:15;;;;;;;3.25;0.70;;;4.70;99.80;;;;;;21715672;27;20014;-82
2024/04/24 03:25:16;;;;;;;4.28;0.98;;;4.60;99.90;;;;;;21711694;27;20082;-81
2024/04/24 03:35:17;;;;;;;4.80;0.50;;;4.60;99.90;;;;;;21704421;26;20614;-81
2024/04/24 03:45:18;;;;;;;6.80;0.85;;;4.60;99.90;;;;;;21738860;27;20003;-82
2024/04/24 03:55:19;;;;;;;5.18;0.88;;;4.60;99.90;;;;;;21752016;27;20018;-80
2024/04/24 04:05:20;;;;;;;4.70;0.63;;;4.70;93.60;;;;;;21722247;27;20054;-80
2024/04/24 04:15:21;;;;;;;5.95;0.80;;;4.70;53.40;;;;;;21744754;27;20321;-80
2024/04/24 04:25:22;;;;;;;6.68;0.60;;;4.70;50.50;;;;;;21742864;27;20059;-80
2024/04/24 04:35:23;;;;;;;7.53;0.93;;;4.70;35.70;;;;;;21748542;26;21483;-80
2024/04/24 04:45:24;;;;;;;5.47;0.95;;;4.70;31.20;;;;;;21745675;27;20030;-83
2024/04/24 04:55:25;;;;;;;6.90;1.20;;;4.80;39.00;;;;;;21712851;27;20628;-80
2024/04/24 05:05:26;;;;;;;5.70;1.10;;;4.70;53.70;;;;;;21710348;27;20013;-80
2024/04/24 05:15:27;;;;;;;6.10;0.90;;;4.70;72.10;;;;;;21728058;27;20367;-80
2024/04/24 05:25:28;;;;;;;6.93;1.10;;;4.60;85.60;;;;;;21736890;27;20006;-81
2024/04/24 05:35:29;;;;;;;7.03;1.10;;;4.60;92.00;;;;;;21741590;26;20082;-80
2024/04/24 05:45:30;;;;;;;7.47;1.25;;;4.70;93.70;;;;;;21744994;27;20002;-80
2024/04/24 05:55:32;;;;;;;12.43;1.52;;;4.70;94.50;;;;;;21719872;27;20017;-79
2024/04/24 06:05:33;;;;;;;10.63;1.88;;;4.90;94.90;;;;;;21704310;27;20003;-80
2024/04/24 06:15:34;;;;;;;13.25;1.55;;;5.20;67.00;;;;;;21716980;27;20442;-78
2024/04/24 06:25:35;;;;;;;7.18;1.45;;;5.50;37.40;;;;;;21735957;27;20499;-78
2024/04/24 06:35:36;;;;;;;8.27;1.95;;;5.80;37.40;;;;;;21715495;27;20014;-77
2024/04/24 06:45:38;;;;;;;8.10;1.10;;;6.30;13.40;;;;;;21714330;27;20644;-77
2024/04/24 06:55:43;;;;;;;7.47;1.02;;;6.50;1.00;;;;;;21726427;27;20006;-76
2024/04/24 07:05:44;;;;;;;6.35;1.42;;;6.60;1.00;;;;;;21727783;27;20013;-77
2024/04/24 07:15:45;;;;;;;9.10;1.50;;;6.70;1.00;;;;;;21709132;27;19999;-77
2024/04/24 07:25:46;;;;;;;11.93;1.92;;;7.00;1.00;;;;;;21710006;27;20003;-82
2024/04/24 07:35:47;;;;;;;6.05;1.00;;;7.40;1.00;;;;;;21746267;26;20080;-82
2024/04/24 07:45:48;;;;;;;8.73;0.88;;;7.20;1.00;;;;;;21848413;26;20104;-82
2024/04/24 07:55:50;;;;;;;3.90;1.33;;;6.30;2.70;;;;;;21853647;26;20006;-82
2024/04/24 08:05:51;;;;;;;5.25;0.80;;;6.10;35.90;;;;;;21862925;26;19998;-83
2024/04/24 08:15:52;;;;;;;7.20;1.02;;;6.40;65.20;;;;;;21849016;26;20016;-83
2024/04/24 08:25:54;;;;;;;9.30;1.63;;;6.70;70.70;;;;;;21866655;26;20408;-81
2024/04/24 08:35:58;;;;;;;9.57;1.60;;;6.90;89.50;;;;;;21846630;26;20386;-75
2024/04/24 08:46:03;;;;;;;7.93;1.48;;;7.40;69.90;;;;;;21863524;27;20001;-77
2024/04/24 08:56:05;;;;;;;6.80;1.05;;;7.70;26.70;;;;;;21845623;27;20473;-76
2024/04/24 09:06:09;;;;;;;5.57;0.80;;;8.40;8.10;;;;;;21869240;27;19994;-77
2024/04/24 09:16:14;;;;;;;3.58;0.73;;;8.10;1.00;;;;;;21874098;27;20071;-75
2024/04/24 09:26:17;;;;;;;6.25;0.77;;;8.50;1.00;;;;;;21870837;26;20531;-79
2024/04/24 09:36:18;;;;;;;3.75;0.95;;;9.50;1.00;;;;;;21843996;26;20022;-78
2024/04/24 09:46:19;;;;;;;4.68;0.88;;;9.90;1.00;;;;;;21718943;27;20002;-81
2024/04/24 09:56:22;;;;;;;5.63;0.80;;;9.80;1.00;;;;;;21732816;27;20006;-81
2024/04/24 10:06:24;;;;;;;5.95;1.27;;;10.20;1.00;;;;;;21709809;27;20002;-81
2024/04/24 10:16:26;;;;;;;5.07;0.90;;;10.90;1.00;;;;;;21712583;27;20364;-81
2024/04/24 10:26:28;;;;;;;4.95;1.10;;;10.80;1.00;;;;;;21736397;27;20033;-81
2024/04/24 10:36:29;;;;;;;4.95;0.70;;;10.60;1.00;;;;;;21731344;26;20034;-81
2024/04/24 10:46:30;;;;;;;10.25;1.30;;;10.40;1.00;;;;;;21713524;27;20003;-81
2024/04/24 10:56:31;;;;;;;7.28;1.25;;;11.00;1.00;;;;;;21712185;27;20482;-81
2024/04/24 11:06:35;;;;;;;6.45;1.45;;;11.30;1.00;;;;;;21723554;27;21176;-82
2024/04/24 11:16:35;;;;;;;10.45;1.55;;;10.20;1.00;;;;;;21711768;27;20335;-81
2024/04/24 11:26:36;;;;;;;11.32;1.20;;;9.10;1.00;;;;;;21710501;27;20414;-82
2024/04/24 11:36:39;;;;;;;6.65;1.73;;;9.90;1.00;;;;;;21758498;27;19997;-80
2024/04/24 11:46:40;;;;;;;11.88;2.00;;;10.70;1.00;;;;;;21850031;27;20076;-79
2024/04/24 11:56:44;;;;;;;8.20;1.30;;;10.70;1.00;;;;;;21866394;27;20088;-79
2024/04/24 12:06:45;;;;;;;8.40;1.42;;;12.10;1.00;;;;;;21858945;27;20002;-80
2024/04/24 12:16:46;;;;;;;10.40;1.33;;;11.10;1.00;;;;;;21864329;27;20004;-79
2024/04/24 12:26:47;;;;;;;6.80;1.00;;;10.50;1.00;;;;;;21831310;26;20009;-80
2024/04/24 12:36:48;;;;;;;5.53;1.67;;;10.20;1.00;;;;;;21860518;27;20016;-79
2024/04/24 12:46:49;;;;;;;4.70;1.23;;;10.60;1.00;;;;;;21836678;26;20763;-81
2024/04/24 12:56:50;;;;;;;4.18;0.95;;;9.60;1.00;;;;;;21859817;27;20345;-81
2024/04/24 13:06:51;;;;;;;4.88;1.15;;;9.80;1.00;;;;;;21825040;27;19998;-81
2024/04/24 13:16:52;;;;;;;6.65;1.17;;;10.80;1.00;;;;;;21859884;27;20002;-81
2024/04/24 13:26:53;;;;;;;3.08;0.50;;;11.80;1.00;;;;;;21885873;27;20046;-81
2024/04/24 13:36:54;;;;;;;4.55;0.73;;;10.40;1.00;;;;;;21938047;26;20005;-81
2024/04/24 13:46:55;;;;;;;11.40;1.10;;;8.60;1.00;;;;;;21980237;26;22351;-79
2024/04/24 13:56:57;;;;;;;10.30;1.13;;;7.30;1.00;;;;;;21911608;26;20364;-78
2024/04/24 14:06:58;;;;;;;3.78;0.68;;;7.10;28.90;;;;;;21839512;27;20012;-76
2024/04/24 14:16:59;;;;;;;4.30;0.95;;;7.60;80.90;;;;;;21872511;27;20010;-77
2024/04/24 14:27:00;;;;;;;5.32;1.02;;;7.40;48.30;;;;;;21859195;27;20380;-77
2024/04/24 14:37:01;;;;;;;9.98;1.95;;;7.20;75.50;;;;;;21872881;27;20018;-78
2024/04/24 14:47:02;;;;;;;10.68;1.80;;;7.70;99.90;;;;;;21873629;26;20006;-79
2024/04/24 14:57:03;;;;;;;11.60;2.17;;;8.50;99.90;;;;;;21866876;27;20006;-79
2024/04/24 15:07:07;;;;;;;8.82;1.80;;;9.10;99.90;;;;;;21846197;26;20002;-82
2024/04/24 15:17:08;;;;;;;8.82;1.95;;;8.70;46.60;;;;;;21872102;26;20109;-82
2024/04/24 15:27:09;;;;;;;6.53;1.25;;;8.70;59.40;;;;;;21870692;26;20002;-82
2024/04/24 15:37:10;;;;;;;11.60;2.40;;;9.30;6.70;;;;;;21812577;26;20034;-81
2024/04/24 15:47:11;;;;;;;10.32;1.73;;;9.20;1.00;;;;;;21733818;27;19999;-81
2024/04/24 15:57:12;;;;;;;7.68;1.10;;;9.20;1.00;;;;;;21735071;27;20820;-81
2024/04/24 16:07:13;;;;;;;10.45;2.53;;;9.20;1.00;;;;;;21720342;27;20022;-82
2024/04/24 16:17:14;;;;;;;6.30;1.00;;;8.90;1.00;;;;;;21693951;27;20299;-82
2024/04/24 16:27:15;;;;;;;5.13;1.15;;;8.90;1.00;;;;;;21693459;27;20583;-79
2024/04/24 16:37:16;;;;;;;6.43;1.38;;;8.20;1.00;;;;;;21705172;26;20010;-79
2024/04/24 16:58:27;;;;;;;;;;;7.90;8.00;;;;;;21622566;27;20477;-82
2024/04/24 17:08:29;;;;;;;6.53;1.40;;;8.00;8.80;;;;;;21731111;27;20451;-80
2024/04/24 17:18:33;;;;;;;3.75;1.02;;;8.10;2.60;;;;;;21718330;27;20335;-78
2024/04/24 17:28:34;;;;;;;3.97;1.02;;;8.00;1.00;;;;;;21758682;27;20580;-77
2024/04/24 17:38:35;;;;;;;3.65;0.82;;;7.90;1.00;;;;;;21752044;26;20354;-77
2024/04/24 17:48:36;;;;;;;4.32;0.85;;;7.90;1.00;;;;;;21732526;27;20447;-77
2024/04/24 17:58:37;;;;;;;3.58;0.65;;;7.80;1.00;;;;;;21742258;27;21215;-78
2024/04/24 18:08:37;;;;;;;1.52;0.45;;;7.70;1.00;;;;;;21745070;27;20007;-82
2024/04/24 18:18:39;;;;;;;2.05;0.60;;;7.20;1.00;;;;;;21743716;27;21311;-80
2024/04/24 18:28:40;;;;;;;3.00;0.80;;;6.90;1.00;;;;;;21714728;27;20015;-83
2024/04/24 18:38:41;;;;;;;3.50;0.77;;;6.80;16.50;;;;;;21689476;26;20018;-81
2024/04/24 18:48:42;;;;;;;2.50;0.80;;;6.80;27.30;;;;;;21711274;27;20473;-80
2024/04/24 18:58:43;;;;;;;2.35;1.60;;;6.70;28.20;;;;;;21746184;27;20470;-80
2024/04/24 19:08:44;;;;;;;2.65;0.90;;;6.60;42.30;;;;;;21745128;27;20124;-80
2024/04/24 19:18:46;;;;;;;3.25;1.30;;;6.40;45.30;;;;;;21714480;27;20072;-82
2024/04/24 19:28:47;;;;;;;6.32;1.33;;;5.90;72.40;;;;;;21715031;27;19999;-81
2024/04/24 19:38:48;;;;;;;6.57;2.05;;;5.70;99.90;;;;;;21722249;26;20018;-80
2024/04/24 19:48:52;;;;;;;3.92;1.95;;;5.70;99.90;;;;;;21719912;27;19998;-79
2024/04/24 19:58:53;;;;;;;8.32;2.60;;;5.70;99.90;;;;;;21708884;27;20196;-79
2024/04/24 20:08:54;;;;;;;6.25;2.72;;;5.80;99.90;;;;;;21713399;27;20084;-81
2024/04/24 20:18:55;;;;;;;4.18;1.40;;;5.80;99.90;;;;;;21724189;27;20107;-80
2024/04/24 20:28:56;;;;;;;6.15;2.47;;;5.60;99.90;;;;;;21738329;27;20002;-82
2024/04/24 20:39:01;;;;;;;5.25;1.88;;;5.50;99.90;;;;;;21734918;26;20009;-79
2024/04/24 20:49:01;;;;;;;4.82;1.95;;;5.50;99.90;;;;;;21739231;27;20027;-80
2024/04/24 20:59:04;;;;;;;4.53;2.00;;;5.20;99.90;;;;;;21743538;27;20009;-80
2024/04/24 21:09:06;;;;;;;7.38;2.30;;;5.20;99.90;;;;;;21722281;27;20002;-81
2024/04/24 21:19:08;;;;;;;8.55;2.20;;;5.10;99.90;;;;;;21744271;27;20512;-82
2024/04/24 21:29:09;;;;;;;9.18;2.60;;;5.20;99.90;;;;;;21715571;27;20010;-79
2024/04/24 21:39:11;;;;;;;6.68;2.70;;;5.10;99.90;;;;;;21734838;26;20017;-81
2024/04/24 21:49:12;;;;;;;9.57;2.80;;;5.00;99.90;;;;;;21738574;27;20418;-80
2024/04/24 21:59:13;;;;;;;5.63;3.05;;;4.80;99.90;;;;;;21732805;27;20018;-79
2024/04/24 22:09:14;;;;;;;6.15;3.72;;;4.70;99.90;;;;;;21730465;27;20013;-79
2024/04/24 22:19:15;;;;;;;10.27;3.22;;;4.70;99.90;;;;;;21715613;27;20022;-80
2024/04/24 22:29:17;;;;;;;7.22;2.63;;;4.60;99.90;;;;;;21728819;27;20007;-80
2024/04/24 22:39:18;;;;;;;7.13;2.55;;;4.50;99.90;;;;;;21802455;26;20662;-81
2024/04/24 22:49:19;;;;;;;7.68;2.08;;;4.50;99.90;;;;;;21853279;26;20065;-80
2024/04/24 22:59:20;;;;;;;6.55;1.80;;;4.40;99.90;;;;;;21852933;26;20009;-81
2024/04/24 23:09:21;;;;;;;3.65;1.88;;;4.20;99.90;;;;;;21836783;26;20341;-79
2024/04/24 23:19:22;;;;;;;6.10;2.08;;;4.10;99.90;;;;;;21872908;26;20001;-81
2024/04/24 23:29:23;;;;;;;8.70;2.28;;;4.00;99.90;;;;;;21871269;26;20457;-79
2024/04/24 23:39:24;;;;;;;10.30;1.90;;;4.00;99.90;;;;;;21864171;26;20001;-79
2024/04/24 23:49:25;;;;;;;12.98;2.40;;;4.00;99.90;;;;;;21862376;26;20016;-79
2024/04/24 23:59:26;;;;;;;10.90;2.33;;;4.10;99.90;;;;;;21850813;27;20013;-80
